Time;durP1;ratioP1;P1;durP2;ratioP2;P2;SDS_P1;SDS_P2;PMS_P1;PMS_P2;Temp;Humidity;BMP_temperature;BMP_pressure;BME280_temperature;BME280_humidity;BME280_pressure;Samples;Min_cycle;Max_cycle;Signal;HPM_P1;HPM_P2
2023/12/21 00:02:17;;;;;;;14.88;6.75;;;;;;;8.05;100.00;100753.13;5034721;28;20029;-58
2023/12/21 00:04:42;;;;;;;10.70;6.60;;;;;;;8.06;100.00;100759.25;5035099;28;20430;-57
2023/12/21 00:07:08;;;;;;;16.15;6.97;;;;;;;8.07;100.00;100742.44;5036743;28;20463;-57
2023/12/21 00:09:33;;;;;;;18.08;7.22;;;;;;;8.07;100.00;100734.53;5035586;28;20371;-58
2023/12/21 00:11:58;;;;;;;12.20;6.45;;;;;;;8.09;100.00;100719.38;5033994;28;20071;-58
2023/12/21 00:14:26;;;;;;;13.27;6.07;;;;;;;8.10;100.00;100707.88;5034002;28;20044;-57
2023/12/21 00:16:52;;;;;;;14.07;6.47;;;;;;;8.10;100.00;100721.09;5034596;28;20036;-58
2023/12/21 00:19:17;;;;;;;13.18;6.50;;;;;;;8.09;100.00;100707.03;5036368;28;20202;-57
2023/12/21 00:21:42;;;;;;;17.40;7.18;;;;;;;8.10;100.00;100710.50;5032508;28;20057;-58
2023/12/21 00:24:08;;;;;;;17.15;6.75;;;;;;;8.10;100.00;100706.06;5035747;28;20036;-58
2023/12/21 00:26:33;;;;;;;14.38;7.22;;;;;;;8.10;100.00;100702.56;5014461;28;20026;-58
2023/12/21 00:28:58;;;;;;;12.35;6.82;;;;;;;8.10;100.00;100692.81;5034102;28;20021;-58
2023/12/21 00:31:23;;;;;;;15.10;6.88;;;;;;;8.09;100.00;100680.56;5037817;28;20103;-58
2023/12/21 00:33:49;;;;;;;15.98;7.13;;;;;;;8.08;100.00;100673.56;5033822;28;20028;-58
2023/12/21 00:36:17;;;;;;;15.70;7.40;;;;;;;8.07;100.00;100669.22;5033894;28;20040;-58
2023/12/21 00:38:43;;;;;;;15.18;7.47;;;;;;;8.09;100.00;100669.13;5028549;28;20021;-58
2023/12/21 00:41:08;;;;;;;15.35;7.90;;;;;;;8.08;100.00;100675.38;5014739;28;20517;-58
2023/12/21 00:43:33;;;;;;;15.43;7.80;;;;;;;8.08;100.00;100673.56;5033561;28;20023;-58
2023/12/21 00:45:58;;;;;;;14.32;8.25;;;;;;;8.08;100.00;100667.44;5034693;28;20466;-57
2023/12/21 00:48:24;;;;;;;14.15;7.93;;;;;;;8.07;100.00;100650.72;5034104;28;20053;-58
2023/12/21 00:50:49;;;;;;;20.67;8.50;;;;;;;8.07;100.00;100649.88;5031512;28;20426;-58
2023/12/21 00:53:15;;;;;;;16.25;8.45;;;;;;;8.07;100.00;100641.94;5027184;28;20029;-57
2023/12/21 00:55:40;;;;;;;16.13;8.43;;;;;;;8.06;100.00;100637.59;5026409;28;20071;-58
2023/12/21 00:58:06;;;;;;;14.00;8.23;;;;;;;8.06;100.00;100634.94;5032026;28;20041;-58
2023/12/21 01:00:31;;;;;;;15.38;8.50;;;;;;;8.07;100.00;100618.97;5034985;28;20025;-58
2023/12/21 01:02:56;;;;;;;17.27;8.35;;;;;;;8.07;100.00;100626.06;5031723;28;20028;-59
2023/12/21 01:05:22;;;;;;;15.38;8.55;;;;;;;8.09;100.00;100619.72;5032545;28;20025;-57
2023/12/21 01:07:47;;;;;;;13.00;8.23;;;;;;;8.11;100.00;100619.59;5034291;28;20108;-57
2023/12/21 01:10:12;;;;;;;18.08;8.05;;;;;;;8.14;100.00;100607.03;5031573;28;20026;-57
2023/12/21 01:12:38;;;;;;;16.10;7.53;;;;;;;8.15;100.00;100600.75;5032686;28;20132;-57
2023/12/21 01:15:03;;;;;;;18.42;7.50;;;;;;;8.18;100.00;100591.78;5029950;28;20033;-58
2023/12/21 01:17:29;;;;;;;13.55;6.72;;;;;;;8.20;100.00;100589.03;5032061;28;20084;-57
2023/12/21 01:19:54;;;;;;;18.67;7.30;;;;;;;8.23;100.00;100589.66;5033121;28;20018;-57
2023/12/21 01:22:19;;;;;;;13.70;6.70;;;;;;;8.24;100.00;100586.03;5033556;28;20030;-57
2023/12/21 01:24:45;;;;;;;13.50;6.53;;;;;;;8.25;100.00;100605.41;5031173;28;20024;-56
2023/12/21 01:27:10;;;;;;;14.88;6.65;;;;;;;8.26;100.00;100591.22;5033810;28;20029;-56
2023/12/21 01:29:36;;;;;;;15.13;7.18;;;;;;;8.27;100.00;100588.47;5032590;28;20087;-57
2023/12/21 01:32:01;;;;;;;14.85;6.53;;;;;;;8.27;100.00;100591.09;5032874;28;20021;-59
2023/12/21 01:34:27;;;;;;;11.77;6.70;;;;;;;8.28;100.00;100584.88;5031573;28;20025;-57
2023/12/21 01:36:52;;;;;;;14.23;7.10;;;;;;;8.28;100.00;100578.75;5034344;28;20021;-57
2023/12/21 01:39:17;;;;;;;14.38;7.05;;;;;;;8.29;100.00;100560.13;5029421;28;20041;-54
2023/12/21 01:41:43;;;;;;;12.48;6.40;;;;;;;8.28;100.00;100569.00;5033970;28;20020;-57
2023/12/21 01:44:08;;;;;;;16.80;7.20;;;;;;;8.30;100.00;100560.94;5030491;28;20033;-56
2023/12/21 01:46:33;;;;;;;16.05;6.75;;;;;;;8.28;100.00;100554.94;5035164;28;20016;-57
2023/12/21 01:49:00;;;;;;;14.90;6.93;;;;;;;8.28;100.00;100560.22;5031337;28;20037;-57
2023/12/21 01:51:26;;;;;;;14.75;6.97;;;;;;;8.29;100.00;100553.97;5034519;28;20029;-57
2023/12/21 01:53:53;;;;;;;17.33;7.53;;;;;;;8.28;100.00;100553.13;5031484;28;20028;-57
2023/12/21 01:56:20;;;;;;;14.95;7.15;;;;;;;8.28;100.00;100549.63;5032791;28;20029;-57
2023/12/21 01:58:47;;;;;;;15.10;7.90;;;;;;;8.26;100.00;100540.94;5030439;28;20056;-56
2023/12/21 02:01:13;;;;;;;16.58;8.13;;;;;;;8.26;100.00;100544.47;5033289;28;20390;-58
2023/12/21 02:03:39;;;;;;;16.45;8.35;;;;;;;8.27;100.00;100543.47;5032738;28;20479;-57
2023/12/21 02:06:04;;;;;;;18.40;8.38;;;;;;;8.30;100.00;100550.38;5031891;28;20036;-57
2023/12/21 02:08:30;;;;;;;18.50;9.05;;;;;;;8.28;100.00;100539.88;5032138;28;20072;-58
2023/12/21 02:10:59;;;;;;;14.95;8.80;;;;;;;8.28;100.00;100554.94;5033121;28;20044;-57
2023/12/21 02:13:24;;;;;;;17.67;9.30;;;;;;;8.29;100.00;100546.88;5031572;28;20045;-57
2023/12/21 02:15:53;;;;;;;15.65;8.30;;;;;;;8.28;100.00;100547.81;5029863;28;20018;-57
2023/12/21 02:18:20;;;;;;;18.50;8.85;;;;;;;8.29;100.00;100548.66;5032286;28;20042;-56
2023/12/21 02:20:45;;;;;;;20.02;9.18;;;;;;;8.29;100.00;100538.94;5018276;28;20025;-55
2023/12/21 02:23:13;;;;;;;16.10;8.30;;;;;;;8.30;100.00;100537.97;5032563;28;20098;-55
2023/12/21 02:25:39;;;;;;;17.42;8.25;;;;;;;8.31;100.00;100541.47;5031884;28;20038;-58
2023/12/21 02:28:04;;;;;;;17.08;8.30;;;;;;;8.30;100.00;100527.38;5029750;28;20075;-57
2023/12/21 02:30:30;;;;;;;16.95;8.05;;;;;;;8.31;100.00;100523.81;5034079;28;20021;-57
2023/12/21 02:32:55;;;;;;;20.25;8.75;;;;;;;8.32;100.00;100517.53;5033482;28;20025;-56
2023/12/21 02:35:21;;;;;;;19.33;8.23;;;;;;;8.32;100.00;100500.81;5031590;28;20167;-57
2023/12/21 02:37:46;;;;;;;18.73;8.48;;;;;;;8.32;100.00;100490.22;5032798;28;20029;-57
2023/12/21 02:40:12;;;;;;;18.27;8.20;;;;;;;8.32;100.00;100492.88;5030655;28;20074;-55
2023/12/21 02:42:37;;;;;;;20.38;8.50;;;;;;;8.32;100.00;100490.22;5031583;28;20022;-56
2023/12/21 02:45:02;;;;;;;18.50;8.02;;;;;;;8.31;100.00;100481.47;5032541;28;20095;-58
2023/12/21 02:47:28;;;;;;;15.93;7.50;;;;;;;8.31;100.00;100491.19;5006005;28;20402;-57
2023/12/21 02:49:53;;;;;;;18.80;8.20;;;;;;;8.30;100.00;100487.69;5030988;28;20103;-57
2023/12/21 02:52:19;;;;;;;18.60;8.13;;;;;;;8.31;100.00;100486.75;5025896;28;20046;-58
2023/12/21 02:54:44;;;;;;;20.02;7.25;;;;;;;8.31;100.00;100481.47;5031885;28;20192;-59
2023/12/21 02:57:10;;;;;;;20.80;7.88;;;;;;;8.31;100.00;100477.94;5028257;28;20025;-58
2023/12/21 02:59:35;;;;;;;19.48;8.05;;;;;;;8.31;100.00;100472.66;5028981;28;20170;-57
2023/12/21 03:02:00;;;;;;;16.23;7.75;;;;;;;8.30;100.00;100471.81;5034439;28;20333;-58
2023/12/21 03:04:26;;;;;;;16.88;7.68;;;;;;;8.28;100.00;100473.75;5030324;28;20104;-57
2023/12/21 03:06:51;;;;;;;21.92;7.72;;;;;;;8.29;100.00;100477.22;5031867;28;20502;-58
2023/12/21 03:09:18;;;;;;;18.17;7.43;;;;;;;8.29;100.00;100472.81;5029934;28;20104;-57
2023/12/21 03:11:43;;;;;;;19.92;6.90;;;;;;;8.28;100.00;100468.44;5030341;28;20017;-58
2023/12/21 03:14:08;;;;;;;19.70;6.57;;;;;;;8.29;100.00;100459.56;5034746;28;20049;-57
2023/12/21 03:16:34;;;;;;;19.98;7.10;;;;;;;8.28;100.00;100443.81;5031328;28;20550;-57
2023/12/21 03:19:00;;;;;;;14.43;6.07;;;;;;;8.28;100.00;100410.25;5030096;28;20097;-59
2023/12/21 03:21:25;;;;;;;15.65;6.13;;;;;;;8.28;100.00;100397.00;5033025;28;20459;-57
2023/12/21 03:23:50;;;;;;;23.10;6.82;;;;;;;8.28;100.00;100386.44;5027983;28;20030;-57
2023/12/21 03:26:17;;;;;;;20.02;6.47;;;;;;;8.25;100.00;100370.78;5029574;28;20494;-57
2023/12/21 03:28:44;;;;;;;17.38;6.47;;;;;;;8.29;100.00;100368.75;5030333;28;20521;-58
2023/12/21 03:31:10;;;;;;;20.58;6.63;;;;;;;8.28;100.00;100377.66;5029362;28;20556;-57
2023/12/21 03:33:35;;;;;;;14.73;5.90;;;;;;;8.27;100.00;100376.78;5029667;28;20029;-57
2023/12/21 03:36:01;;;;;;;18.98;6.13;;;;;;;8.29;100.00;100372.25;5032005;28;20415;-57
2023/12/21 03:38:26;;;;;;;18.55;6.43;;;;;;;8.28;100.00;100364.44;5035033;28;20021;-57
2023/12/21 03:40:51;;;;;;;24.35;6.97;;;;;;;8.29;100.00;100358.16;5033779;28;20021;-57
2023/12/21 03:43:16;;;;;;;21.90;6.60;;;;;;;8.28;100.00;100353.84;5036570;28;20037;-57
2023/12/21 03:45:42;;;;;;;22.27;6.53;;;;;;;8.27;100.00;100346.84;5034239;28;20022;-56
2023/12/21 03:48:08;;;;;;;18.88;6.13;;;;;;;8.27;100.00;100338.91;5032530;28;20037;-57
2023/12/21 03:50:34;;;;;;;19.67;6.00;;;;;;;8.29;100.00;100331.69;5031927;28;20018;-57
2023/12/21 03:52:59;;;;;;;22.45;6.40;;;;;;;8.29;100.00;100326.41;5035461;28;20037;-58
2023/12/21 03:55:24;;;;;;;15.63;6.25;;;;;;;8.28;100.00;100335.31;5032819;28;20020;-58
2023/12/21 03:57:49;;;;;;;24.73;6.78;;;;;;;8.27;100.00;100329.16;5035348;28;20029;-58
2023/12/21 04:00:18;;;;;;;21.90;6.55;;;;;;;8.28;100.00;100328.22;5016301;28;20025;-58
2023/12/21 04:02:44;;;;;;;22.83;7.32;;;;;;;8.30;100.00;100309.59;5032385;28;20017;-58
2023/12/21 04:05:09;;;;;;;20.48;7.47;;;;;;;8.28;100.00;100300.94;5035025;28;20505;-57
2023/12/21 04:07:34;;;;;;;21.85;7.95;;;;;;;8.28;100.00;100306.22;5032779;28;20494;-55
2023/12/21 04:10:00;;;;;;;22.50;8.40;;;;;;;8.29;100.00;100308.75;5034482;28;20072;-58
2023/12/21 04:12:26;;;;;;;25.90;8.82;;;;;;;8.30;100.00;100305.13;5035342;28;20132;-58
2023/12/21 04:14:51;;;;;;;21.60;8.38;;;;;;;8.31;100.00;100313.91;5035404;28;20121;-55
2023/12/21 04:17:16;;;;;;;24.23;8.85;;;;;;;8.31;100.00;100296.25;5034348;28;20030;-56
2023/12/21 04:19:42;;;;;;;20.13;8.63;;;;;;;8.33;100.00;100289.03;5034777;28;20022;-56
2023/12/21 04:22:07;;;;;;;24.17;8.98;;;;;;;8.33;100.00;100280.25;5034606;28;20381;-57
2023/12/21 04:24:32;;;;;;;20.88;9.38;;;;;;;8.36;100.00;100284.44;5034793;28;20079;-57
2023/12/21 04:26:57;;;;;;;27.23;10.32;;;;;;;8.37;100.00;100270.28;5033561;28;20456;-56
2023/12/21 04:29:23;;;;;;;23.67;9.93;;;;;;;8.39;100.00;100276.28;5035341;28;20026;-58
2023/12/21 04:31:48;;;;;;;27.70;10.15;;;;;;;8.41;100.00;100255.84;5035088;28;20383;-56
2023/12/21 04:34:13;;;;;;;20.83;10.85;;;;;;;8.43;100.00;100264.56;5034652;28;20079;-57
2023/12/21 04:36:38;;;;;;;23.50;10.50;;;;;;;8.44;100.00;100256.50;5032505;28;20041;-57
2023/12/21 04:39:04;;;;;;;24.38;10.38;;;;;;;8.47;100.00;100244.81;5017761;28;20025;-57
2023/12/21 04:41:29;;;;;;;25.70;10.43;;;;;;;8.49;100.00;100234.94;5017212;28;20063;-57
2023/12/21 04:43:54;;;;;;;26.55;10.38;;;;;;;8.50;100.00;100221.59;5033658;28;20018;-55
2023/12/21 04:46:19;;;;;;;23.10;9.77;;;;;;;8.54;100.00;100232.78;5034181;28;20027;-56
2023/12/21 04:48:45;;;;;;;23.95;9.73;;;;;;;8.58;100.00;100236.06;5034527;28;20017;-56
2023/12/21 04:51:18;;;;;;;22.95;10.05;;;;;;;8.59;100.00;100220.03;5031463;28;20033;-55
2023/12/21 04:53:43;;;;;;;22.55;9.07;;;;;;;8.59;100.00;100211.25;5034804;28;20021;-55
2023/12/21 04:56:09;;;;;;;20.45;9.23;;;;;;;8.61;100.00;100201.38;5032811;28;20026;-54
2023/12/21 04:58:34;;;;;;;20.42;8.35;;;;;;;8.62;100.00;100200.44;5037397;28;20019;-57
2023/12/21 05:00:59;;;;;;;15.68;8.73;;;;;;;8.63;100.00;100192.38;5031587;28;20034;-56
2023/12/21 05:03:25;;;;;;;17.00;8.00;;;;;;;8.64;100.00;100190.56;5032248;28;20040;-55
2023/12/21 05:05:50;;;;;;;21.85;9.10;;;;;;;8.66;100.00;100178.88;5034900;28;20044;-57
2023/12/21 05:08:15;;;;;;;21.40;8.25;;;;;;;8.67;100.00;100154.09;5035065;28;20036;-56
2023/12/21 05:10:41;;;;;;;21.15;7.93;;;;;;;8.70;100.00;100169.72;5032582;28;20025;-55
2023/12/21 05:13:07;;;;;;;19.88;7.00;;;;;;;8.72;100.00;100174.91;5031199;28;20458;-54
2023/12/21 05:15:32;;;;;;;16.70;7.00;;;;;;;8.74;100.00;100182.72;5034900;28;20414;-56
2023/12/21 05:17:58;;;;;;;23.38;7.72;;;;;;;8.75;100.00;100179.13;5034200;28;20021;-56
2023/12/21 05:20:23;;;;;;;19.58;6.70;;;;;;;8.76;100.00;100175.50;5032614;28;20121;-56
2023/12/21 05:22:49;;;;;;;20.33;6.85;;;;;;;8.77;100.00;100180.66;5032309;28;20017;-56
2023/12/21 05:25:16;;;;;;;15.95;6.18;;;;;;;8.77;100.00;100185.13;5035195;28;20053;-55
2023/12/21 05:27:41;;;;;;;13.20;5.78;;;;;;;8.81;100.00;100183.91;5032901;28;20021;-56
2023/12/21 05:30:07;;;;;;;13.18;5.70;;;;;;;8.81;100.00;100157.44;5036173;28;20036;-56
2023/12/21 05:32:32;;;;;;;13.68;5.53;;;;;;;8.83;100.00;100140.47;5031554;28;20067;-55
2023/12/21 05:34:57;;;;;;;18.95;5.78;;;;;;;8.84;100.00;100133.34;5032538;28;20059;-57
2023/12/21 05:37:23;;;;;;;14.77;5.72;;;;;;;8.86;100.00;100129.63;5015304;28;20028;-57
2023/12/21 05:39:49;;;;;;;13.77;5.00;;;;;;;8.89;100.00;100133.81;5032324;28;20025;-56
2023/12/21 05:42:14;;;;;;;17.50;4.70;;;;;;;8.89;100.00;100129.38;5035484;28;20519;-56
2023/12/21 05:44:40;;;;;;;14.80;4.85;;;;;;;8.92;100.00;100133.59;5032963;28;20120;-56
2023/12/21 05:47:05;;;;;;;18.95;5.75;;;;;;;8.93;100.00;100153.81;5032112;28;20025;-55
2023/12/21 05:49:30;;;;;;;15.02;4.43;;;;;;;8.95;100.00;100151.03;5034898;28;20475;-56
2023/12/21 05:51:55;;;;;;;11.00;3.97;;;;;;;8.97;100.00;100152.59;5032187;28;20067;-55
2023/12/21 05:54:21;;;;;;;14.43;4.55;;;;;;;8.99;100.00;100145.38;5035153;28;20017;-57
2023/12/21 05:56:46;;;;;;;13.90;4.30;;;;;;;9.00;100.00;100143.56;5030642;28;20021;-57
2023/12/21 05:59:12;;;;;;;9.80;3.90;;;;;;;9.03;100.00;100145.97;5031498;28;20044;-57
2023/12/21 06:01:38;;;;;;;9.93;3.80;;;;;;;9.02;100.00;100149.56;5031054;28;20025;-56
2023/12/21 06:04:03;;;;;;;13.20;4.57;;;;;;;9.02;100.00;100150.41;5033787;28;20385;-57
2023/12/21 06:06:29;;;;;;;11.18;4.55;;;;;;;9.03;100.00;100140.66;5029245;28;20067;-53
2023/12/21 06:08:54;;;;;;;11.80;4.28;;;;;;;9.01;100.00;100146.09;5030563;28;20025;-56
2023/12/21 06:11:20;;;;;;;13.13;4.07;;;;;;;9.01;100.00;100146.09;5033305;28;20083;-56
2023/12/21 06:13:45;;;;;;;11.55;4.95;;;;;;;9.01;100.00;100132.84;5033627;28;20073;-54
2023/12/21 06:16:11;;;;;;;15.55;5.07;;;;;;;8.98;100.00;100127.78;5031664;28;20024;-57
2023/12/21 06:18:38;;;;;;;13.48;5.65;;;;;;;8.96;100.00;100112.97;5030290;28;20028;-57
2023/12/21 06:21:03;;;;;;;12.10;5.55;;;;;;;8.94;100.00;100113.09;5028352;28;20421;-56
2023/12/21 06:23:29;;;;;;;14.43;5.50;;;;;;;8.93;100.00;100092.91;5029563;28;20029;-54
2023/12/21 06:25:54;;;;;;;20.67;6.22;;;;;;;8.94;100.00;100075.19;5027839;28;20497;-56
2023/12/21 06:28:21;;;;;;;16.20;6.10;;;;;;;8.92;100.00;100063.88;5033194;28;20037;-57
2023/12/21 06:30:46;;;;;;;14.02;5.82;;;;;;;8.88;100.00;100069.44;5030865;28;20165;-55
2023/12/21 06:33:12;;;;;;;13.10;5.97;;;;;;;8.89;100.00;100083.50;5028790;28;20033;-56
2023/12/21 06:35:37;;;;;;;12.60;5.72;;;;;;;8.88;100.00;100093.28;5031577;28;20091;-56
2023/12/21 06:38:02;;;;;;;12.55;5.57;;;;;;;8.88;100.00;100101.22;5032370;28;20029;-56
2023/12/21 06:40:28;;;;;;;13.85;5.80;;;;;;;8.88;100.00;100095.09;5031947;28;20033;-54
2023/12/21 06:42:53;;;;;;;9.40;5.65;;;;;;;8.90;100.00;100071.97;5030288;28;20037;-55
2023/12/21 06:45:18;;;;;;;14.95;5.30;;;;;;;8.89;100.00;100076.44;5033170;28;20028;-55
2023/12/21 06:47:43;;;;;;;15.43;5.40;;;;;;;8.90;100.00;100074.59;5031736;28;20033;-57
2023/12/21 06:50:09;;;;;;;12.75;5.13;;;;;;;8.91;100.00;100071.00;5027373;28;20021;-57
2023/12/21 06:52:34;;;;;;;13.38;4.68;;;;;;;8.93;100.00;100070.88;5033569;28;20032;-57
2023/12/21 06:54:59;;;;;;;14.30;4.80;;;;;;;8.92;100.00;100070.03;5029890;28;20025;-56
2023/12/21 06:57:25;;;;;;;14.50;4.22;;;;;;;8.94;100.00;100054.00;5031917;28;20059;-55
2023/12/21 06:59:50;;;;;;;11.10;4.05;;;;;;;8.96;100.00;100038.81;5027012;28;20029;-56
2023/12/21 07:02:15;;;;;;;9.63;3.90;;;;;;;8.95;100.00;100030.03;5030318;28;20107;-56
2023/12/21 07:04:40;;;;;;;15.43;4.07;;;;;;;8.96;100.00;100031.75;5020156;28;20030;-57
2023/12/21 07:07:06;;;;;;;14.23;3.85;;;;;;;8.96;100.00;100031.75;5030994;28;20054;-56
2023/12/21 07:09:32;;;;;;;11.60;4.03;;;;;;;8.96;100.00;100012.34;5031963;28;20041;-57
2023/12/21 07:11:57;;;;;;;12.05;4.03;;;;;;;8.96;100.00;100007.03;5029761;28;20034;-56
2023/12/21 07:14:22;;;;;;;15.27;4.05;;;;;;;8.96;100.00;100002.59;5031601;28;20069;-56
2023/12/21 07:16:47;;;;;;;15.95;4.18;;;;;;;8.98;100.00;100010.44;5031581;28;20037;-57
2023/12/21 07:19:13;;;;;;;11.13;4.05;;;;;;;8.99;100.00;99993.53;5031159;28;20021;-57
2023/12/21 07:21:38;;;;;;;12.38;4.00;;;;;;;8.99;100.00;100005.00;5032080;28;20418;-57
2023/12/21 07:24:04;;;;;;;14.57;4.22;;;;;;;9.00;100.00;100000.53;5032497;28;20407;-57
2023/12/21 07:26:29;;;;;;;13.45;4.10;;;;;;;9.03;100.00;99992.34;5032907;28;20025;-56
2023/12/21 07:28:54;;;;;;;10.63;3.70;;;;;;;9.06;100.00;99986.78;5033884;28;20021;-56
2023/12/21 07:31:20;;;;;;;16.27;4.30;;;;;;;9.07;100.00;99975.19;5033704;28;20026;-57
2023/12/21 07:33:46;;;;;;;10.38;3.60;;;;;;;9.09;100.00;99970.59;5031551;28;20025;-56
2023/12/21 07:36:14;;;;;;;9.25;3.22;;;;;;;9.11;100.00;99974.00;5033551;28;20029;-56
2023/12/21 07:38:40;;;;;;;10.75;3.22;;;;;;;9.15;100.00;99959.50;5035793;28;20033;-58
2023/12/21 07:41:07;;;;;;;10.65;3.20;;;;;;;9.19;100.00;99947.69;5033863;28;20116;-57
2023/12/21 07:43:32;;;;;;;12.40;3.95;;;;;;;9.21;100.00;99931.66;5036920;28;20493;-57
2023/12/21 07:45:57;;;;;;;14.50;3.65;;;;;;;9.23;100.00;99929.72;5035575;28;20031;-59
2023/12/21 07:48:23;;;;;;;11.43;3.47;;;;;;;9.24;100.00;99934.88;5035517;28;20028;-58
2023/12/21 07:50:48;;;;;;;10.70;3.42;;;;;;;9.20;100.00;99948.53;5032903;28;20347;-58
2023/12/21 07:53:13;;;;;;;7.60;3.05;;;;;;;9.17;100.00;99946.13;5033357;28;20022;-58
2023/12/21 07:55:38;;;;;;;12.80;3.22;;;;;;;9.16;100.00;99944.44;5034437;28;20381;-58
2023/12/21 07:58:05;;;;;;;6.60;3.13;;;;;;;9.13;100.00;99923.53;5033369;28;20029;-58
2023/12/21 08:00:31;;;;;;;7.60;3.20;;;;;;;9.10;100.00;99939.69;5034057;28;20033;-58
2023/12/21 08:02:56;;;;;;;11.93;3.42;;;;;;;9.04;100.00;99948.97;5036559;28;20109;-58
2023/12/21 08:05:23;;;;;;;9.68;3.90;;;;;;;9.02;100.00;99938.50;5037846;28;20094;-59
2023/12/21 08:07:49;;;;;;;8.07;3.33;;;;;;;9.00;100.00;99945.75;5034832;28;20053;-59
2023/12/21 08:10:15;;;;;;;12.48;3.60;;;;;;;8.96;100.00;99933.75;5041186;28;20041;-59
2023/12/21 08:12:40;;;;;;;9.88;3.50;;;;;;;8.94;100.00;99922.41;5039372;28;20053;-59
2023/12/21 08:15:06;;;;;;;10.75;3.80;;;;;;;8.91;100.00;99922.69;5038524;28;20052;-59
2023/12/21 08:17:32;;;;;;;7.13;3.28;;;;;;;8.88;100.00;99921.13;5033612;28;20033;-59
2023/12/21 08:19:57;;;;;;;9.57;3.67;;;;;;;8.88;100.00;99923.78;5038475;28;20102;-59
2023/12/21 08:22:23;;;;;;;8.30;4.00;;;;;;;8.85;100.00;99915.28;5036904;28;20034;-59
2023/12/21 08:24:51;;;;;;;8.98;3.90;;;;;;;8.84;100.00;99906.50;5044686;28;20072;-59
2023/12/21 08:27:16;;;;;;;5.90;3.17;;;;;;;8.82;100.00;99894.34;5039172;28;20114;-59
2023/12/21 08:29:43;;;;;;;7.35;3.50;;;;;;;8.81;100.00;99892.66;5041084;28;20060;-58
2023/12/21 08:32:08;;;;;;;10.63;4.28;;;;;;;8.81;100.00;99897.94;5016769;28;20028;-59
2023/12/21 08:34:33;;;;;;;8.60;4.07;;;;;;;8.83;100.00;99907.44;5033645;28;20104;-59
2023/12/21 08:36:59;;;;;;;10.55;4.30;;;;;;;8.83;100.00;99901.31;5035868;28;20025;-58
2023/12/21 08:39:26;;;;;;;6.43;3.72;;;;;;;8.81;100.00;99906.75;5042282;28;20017;-57
2023/12/21 08:41:51;;;;;;;10.20;3.72;;;;;;;8.81;100.00;99892.66;5039605;28;20087;-59
2023/12/21 08:44:17;;;;;;;10.43;3.92;;;;;;;8.80;100.00;99894.47;5041159;28;20021;-59
2023/12/21 08:46:43;;;;;;;7.13;4.03;;;;;;;8.83;100.00;99893.38;5040629;28;20551;-60
2023/12/21 08:49:12;;;;;;;7.97;3.30;;;;;;;8.83;100.00;99888.09;5033843;28;20116;-59
2023/12/21 08:51:38;;;;;;;7.47;3.55;;;;;;;8.84;100.00;99881.81;5040396;28;20025;-58
2023/12/21 08:54:04;;;;;;;8.95;3.67;;;;;;;8.83;100.00;99872.19;5031924;28;20018;-57
2023/12/21 08:56:31;;;;;;;10.00;4.05;;;;;;;8.85;100.00;99872.91;5036194;28;20337;-58
2023/12/21 08:58:56;;;;;;;7.50;3.60;;;;;;;8.84;100.00;99850.88;5038859;28;20031;-57
2023/12/21 09:01:22;;;;;;;8.90;4.38;;;;;;;8.85;100.00;99852.53;5028490;28;20013;-58
2023/12/21 09:03:47;;;;;;;9.75;3.80;;;;;;;8.87;100.00;99869.13;5034466;28;20034;-57
2023/12/21 09:06:12;;;;;;;10.27;4.00;;;;;;;8.91;100.00;99876.81;5036299;28;20092;-58
2023/12/21 09:08:38;;;;;;;8.70;3.65;;;;;;;8.88;100.00;99857.59;5040373;28;20033;-58
2023/12/21 09:11:03;;;;;;;6.72;3.70;;;;;;;8.92;100.00;99841.44;5037495;28;20080;-58
2023/12/21 09:13:28;;;;;;;8.45;3.53;;;;;;;8.94;100.00;99850.91;5034329;28;20087;-58
2023/12/21 09:15:53;;;;;;;5.70;3.03;;;;;;;8.96;100.00;99838.41;5037059;28;20025;-58
2023/12/21 09:18:19;;;;;;;7.60;3.67;;;;;;;8.98;100.00;99851.50;5043090;28;20025;-57
2023/12/21 09:20:44;;;;;;;10.38;3.70;;;;;;;8.99;100.00;99851.38;5035629;28;20017;-55
2023/12/21 09:23:10;;;;;;;9.35;3.05;;;;;;;9.02;100.00;99845.78;5041910;28;20438;-58
2023/12/21 09:25:36;;;;;;;8.48;3.20;;;;;;;9.03;100.00;99836.88;5034225;28;20040;-58
2023/12/21 09:28:02;;;;;;;10.65;3.35;;;;;;;9.05;100.00;99831.47;5036309;28;20079;-57
2023/12/21 09:30:29;;;;;;;7.50;3.10;;;;;;;9.06;100.00;99817.25;5039021;28;20025;-57
2023/12/21 09:32:54;;;;;;;8.88;3.13;;;;;;;9.07;100.00;99830.34;5035447;28;20029;-58
2023/12/21 09:35:20;;;;;;;7.22;2.75;;;;;;;9.08;100.00;99847.94;5039895;28;20060;-58
2023/12/21 09:37:45;;;;;;;8.27;2.78;;;;;;;9.11;100.00;99814.19;5031376;28;20078;-58
2023/12/21 09:40:12;;;;;;;9.75;2.92;;;;;;;9.10;100.00;99817.81;5030512;28;20048;-58
2023/12/21 09:42:46;;;;;;;5.97;2.50;;;;;;;9.12;100.00;99823.81;5035629;28;20398;-59
2023/12/21 09:45:12;;;;;;;9.10;2.35;;;;;;;9.14;100.00;99820.06;5035801;28;20100;-57
2023/12/21 09:47:39;;;;;;;10.38;3.17;;;;;;;9.17;100.00;99816.31;5036062;28;20065;-58
2023/12/21 09:50:07;;;;;;;8.77;2.42;;;;;;;9.21;100.00;99810.63;5035103;28;20501;-57
2023/12/21 09:52:34;;;;;;;10.48;2.08;;;;;;;9.27;100.00;99806.59;5038495;28;20040;-59
2023/12/21 09:55:00;;;;;;;6.85;3.03;;;;;;;9.31;100.00;99818.59;5034670;28;20155;-59
2023/12/21 09:57:25;;;;;;;9.15;2.17;;;;;;;9.35;100.00;99805.91;5037808;28;20031;-59
2023/12/21 09:59:56;;;;;;;9.77;2.47;;;;;;;9.39;100.00;99812.59;5043403;28;20021;-57
2023/12/21 10:02:26;;;;;;;15.93;2.63;;;;;;;9.43;100.00;99800.78;5038594;28;20151;-59
2023/12/21 10:04:52;;;;;;;14.75;3.25;;;;;;;9.47;100.00;99811.94;5036987;28;20017;-59
2023/12/21 10:07:17;;;;;;;11.27;2.33;;;;;;;9.51;100.00;99800.09;5037930;28;20029;-59
2023/12/21 10:09:43;;;;;;;9.27;2.97;;;;;;;9.56;100.00;99817.28;5038787;28;20052;-59
2023/12/21 10:12:08;;;;;;;12.85;2.83;;;;;;;9.58;100.00;99807.38;5041125;28;20024;-58
2023/12/21 10:14:34;;;;;;;8.35;2.13;;;;;;;9.63;100.00;99805.13;5036130;28;20104;-59
2023/12/21 10:17:00;;;;;;;10.55;2.40;;;;;;;9.65;100.00;99812.13;5039273;28;20025;-58
2023/12/21 10:19:26;;;;;;;10.27;2.40;;;;;;;9.66;100.00;99812.00;5028437;28;20363;-59
2023/12/21 10:21:52;;;;;;;14.43;3.00;;;;;;;9.68;100.00;99790.66;5036450;28;20045;-59
2023/12/21 10:24:18;;;;;;;14.52;2.85;;;;;;;9.69;100.00;99803.75;5035654;28;20022;-59
2023/12/21 10:26:44;;;;;;;13.80;2.85;;;;;;;9.71;100.00;99801.81;5026592;28;20364;-57
2023/12/21 10:29:14;;;;;;;12.27;2.47;;;;;;;9.76;100.00;99809.34;5033782;28;20026;-58
2023/12/21 10:31:45;;;;;;;12.88;2.72;;;;;;;9.77;100.00;99813.66;5030110;28;20453;-58
2023/12/21 10:34:11;;;;;;;12.73;2.45;;;;;;;9.76;100.00;99804.88;5031200;28;20033;-60
2023/12/21 10:36:40;;;;;;;10.45;2.55;;;;;;;9.78;100.00;99807.41;5040052;28;20124;-59
2023/12/21 10:39:06;;;;;;;;;;;;;;;9.82;100.00;99795.53;5034125;28;20038;-58
2023/12/21 10:41:32;;;;;;;9.82;2.42;;;;;;;9.81;100.00;99788.56;5039615;28;19913;-59
2023/12/21 10:43:57;;;;;;;10.90;2.63;;;;;;;9.82;100.00;99776.97;5040112;28;20024;-59
2023/12/21 10:46:22;;;;;;;6.18;2.20;;;;;;;9.84;100.00;99793.56;5038728;28;20061;-59
2023/12/21 10:48:48;;;;;;;10.55;2.28;;;;;;;9.85;100.00;99805.84;5039755;28;20017;-58
2023/12/21 10:51:16;;;;;;;10.45;2.45;;;;;;;9.87;100.00;99795.94;5038098;28;20084;-59
2023/12/21 10:53:42;;;;;;;8.70;2.47;;;;;;;9.87;100.00;99805.72;5040131;28;20128;-59
2023/12/21 10:56:09;;;;;;;8.85;2.20;;;;;;;9.87;100.00;99784.50;5043927;28;20097;-59
2023/12/21 10:58:35;;;;;;;10.27;2.85;;;;;;;9.81;100.00;99786.75;5041229;28;20434;-58
2023/12/21 11:01:02;;;;;;;9.80;2.17;;;;;;;9.81;100.00;99776.13;5041312;28;20029;-59
2023/12/21 11:03:28;;;;;;;7.35;1.88;;;;;;;9.82;100.00;99776.97;5036227;28;20026;-59
2023/12/21 11:05:55;;;;;;;11.25;2.38;;;;;;;9.86;100.00;99780.16;5040168;28;20024;-58
2023/12/21 11:08:22;;;;;;;8.25;2.47;;;;;;;9.86;100.00;99756.31;5039002;28;20029;-58
2023/12/21 11:10:48;;;;;;;9.52;2.15;;;;;;;9.90;100.00;99758.53;5039416;28;20463;-58
2023/12/21 11:13:13;;;;;;;5.75;1.58;;;;;;;9.93;100.00;99757.44;5037910;28;20052;-58
2023/12/21 11:15:39;;;;;;;5.10;1.67;;;;;;;9.97;100.00;99780.03;5033182;28;20029;-58